Time;durP1;ratioP1;P1;durP2;ratioP2;P2;SDS_P1;SDS_P2;PMS_P1;PMS_P2;Temp;Humidity;BMP_temperature;BMP_pressure;BME280_temperature;BME280_humidity;BME280_pressure;Samples;Min_cycle;Max_cycle;Signal;HPM_P1;HPM_P2
2022/04/15 00:01:31;;;;;;;1.83;1.73;;;;;;;;;;5072455;28;20213;-66
2022/04/15 00:03:59;;;;;;;2.17;1.97;;;;;;;;;;5067909;28;20198;-66
2022/04/15 00:06:26;;;;;;;1.90;1.70;;;;;;;;;;5020916;28;20245;-66
2022/04/15 00:08:53;;;;;;;1.70;1.60;;;;;;;;;;5051261;28;20268;-67
2022/04/15 00:11:20;;;;;;;1.97;1.83;;;;;;;;;;5060252;28;20774;-66
2022/04/15 00:13:48;;;;;;;2.17;1.90;;;;;;;;;;5045110;28;20210;-66
2022/04/15 00:16:15;;;;;;;1.83;1.73;;;;;;;;;;5053695;28;20194;-67
2022/04/15 00:18:48;;;;;;;2.47;2.00;;;;;;;;;;5050445;28;20643;-66
2022/04/15 00:21:15;;;;;;;3.20;2.23;;;;;;;;;;5052234;28;20191;-65
2022/04/15 00:23:42;;;;;;;1.90;1.80;;;;;;;;;;5050431;28;20721;-67
2022/04/15 00:26:09;;;;;;;2.57;1.90;;;;;;;;;;5050090;28;20796;-66
2022/04/15 00:28:36;;;;;;;2.03;1.57;;;;;;;;;;5051650;28;20214;-67
2022/04/15 00:31:04;;;;;;;2.00;1.80;;;;;;;;;;5051099;28;20194;-66
2022/04/15 00:33:31;;;;;;;1.80;1.70;;;;;;;;;;5052317;28;20205;-66
2022/04/15 00:35:58;;;;;;;2.23;1.80;;;;;;;;;;5059330;28;20255;-66
2022/04/15 00:38:25;;;;;;;2.80;1.77;;;;;;;;;;5033257;28;20767;-66
2022/04/15 00:40:52;;;;;;;1.80;1.70;;;;;;;;;;5048712;28;20195;-67
2022/04/15 00:43:19;;;;;;;2.20;1.80;;;;;;;;;;5049975;28;20276;-66
2022/04/15 00:45:47;;;;;;;2.47;2.27;;;;;;;;;;5046046;28;20198;-66
2022/04/15 00:48:16;;;;;;;2.10;1.90;;;;;;;;;;5028054;28;20226;-67
2022/04/15 00:50:44;;;;;;;1.93;1.50;;;;;;;;;;5054541;28;20198;-66
2022/04/15 00:53:11;;;;;;;2.17;1.97;;;;;;;;;;5054109;28;20194;-66
2022/04/15 00:55:40;;;;;;;2.20;1.80;;;;;;;;;;5057075;28;20190;-66
2022/04/15 00:58:08;;;;;;;1.73;1.63;;;;;;;;;;5049804;28;20187;-67
2022/04/15 01:00:36;;;;;;;2.03;1.83;;;;;;;;;;5044016;28;20214;-66
2022/04/15 01:03:04;;;;;;;1.37;1.27;;;;;;;;;;5048719;28;20202;-66
2022/04/15 01:05:32;;;;;;;2.23;1.70;;;;;;;;;;5051487;28;20863;-67
2022/04/15 01:08:02;;;;;;;2.97;1.97;;;;;;;;;;5063603;28;20568;-66
2022/04/15 01:10:29;;;;;;;2.00;1.80;;;;;;;;;;5066956;28;20218;-67
2022/04/15 01:12:57;;;;;;;1.93;1.70;;;;;;;;;;5058969;28;21043;-66
2022/04/15 01:15:44;;;;;;;1.70;1.60;;;;;;;;;;5061280;28;20229;-66
2022/04/15 01:18:11;;;;;;;1.70;1.60;;;;;;;;;;5066740;28;20604;-66
2022/04/15 01:20:38;;;;;;;2.07;1.87;;;;;;;;;;5067501;28;20251;-66
2022/04/15 01:23:09;;;;;;;3.57;2.10;;;;;;;;;;5049024;28;20197;-66
2022/04/15 01:25:36;;;;;;;2.00;1.70;;;;;;;;;;5062813;28;20214;-66
2022/04/15 01:28:04;;;;;;;1.80;1.70;;;;;;;;;;5063878;28;20190;-66
2022/04/15 01:30:31;;;;;;;2.07;1.80;;;;;;;;;;5068620;28;20210;-66
2022/04/15 01:32:58;;;;;;;1.93;1.77;;;;;;;;;;5066551;28;20266;-67
2022/04/15 01:35:30;;;;;;;1.50;1.40;;;;;;;;;;5062973;28;20209;-67
2022/04/15 01:37:59;;;;;;;2.17;1.70;;;;;;;;;;5056217;28;20217;-66
2022/04/15 01:40:27;;;;;;;1.83;1.73;;;;;;;;;;5065560;28;20190;-66
2022/04/15 01:42:54;;;;;;;1.67;1.57;;;;;;;;;;5067069;28;20196;-66
2022/04/15 01:45:22;;;;;;;1.63;1.53;;;;;;;;;;5064282;28;20205;-66
2022/04/15 01:47:50;;;;;;;2.40;2.20;;;;;;;;;;5060635;28;20198;-66
2022/04/15 01:50:18;;;;;;;2.33;1.70;;;;;;;;;;5063908;28;20209;-66
2022/04/15 01:52:45;;;;;;;2.10;1.40;;;;;;;;;;5048009;28;20255;-66
2022/04/15 01:55:12;;;;;;;2.73;2.10;;;;;;;;;;5066641;28;20671;-65
2022/04/15 01:57:39;;;;;;;2.10;1.70;;;;;;;;;;5076781;28;20198;-66
2022/04/15 02:00:07;;;;;;;2.03;1.87;;;;;;;;;;5060197;28;20224;-66
2022/04/15 02:02:34;;;;;;;2.10;1.90;;;;;;;;;;5055293;28;20194;-66
2022/04/15 02:05:01;;;;;;;2.20;2.00;;;;;;;;;;5065463;28;20255;-66
2022/04/15 02:07:28;;;;;;;1.70;1.60;;;;;;;;;;5066200;28;20194;-66
2022/04/15 02:09:55;;;;;;;1.67;1.57;;;;;;;;;;5063637;28;20634;-66
2022/04/15 02:12:22;;;;;;;2.33;1.73;;;;;;;;;;5062199;28;20214;-67
2022/04/15 02:14:50;;;;;;;1.70;1.60;;;;;;;;;;5048359;28;20227;-66
2022/04/15 02:17:17;;;;;;;1.80;1.70;;;;;;;;;;5066756;28;20244;-65
2022/04/15 02:19:44;;;;;;;1.70;1.60;;;;;;;;;;5064772;28;20194;-66
2022/04/15 02:22:11;;;;;;;1.90;1.60;;;;;;;;;;5069276;28;20247;-67
2022/04/15 02:24:38;;;;;;;1.90;1.73;;;;;;;;;;5064996;28;20646;-67
2022/04/15 02:27:05;;;;;;;1.70;1.60;;;;;;;;;;5068532;28;20518;-66
2022/04/15 02:29:33;;;;;;;1.90;1.70;;;;;;;;;;5054693;28;20221;-66
2022/04/15 02:32:00;;;;;;;2.07;1.73;;;;;;;;;;5062592;28;20607;-66
2022/04/15 02:34:27;;;;;;;1.70;1.60;;;;;;;;;;5066002;28;20189;-67
2022/04/15 02:36:54;;;;;;;2.83;1.53;;;;;;;;;;5062305;28;20217;-67
2022/04/15 02:39:21;;;;;;;1.70;1.60;;;;;;;;;;5065486;28;20883;-67
2022/04/15 02:41:51;;;;;;;2.47;2.03;;;;;;;;;;5055712;28;20201;-66
2022/04/15 02:44:18;;;;;;;1.73;1.63;;;;;;;;;;5067448;28;20198;-67
2022/04/15 02:46:46;;;;;;;1.87;1.77;;;;;;;;;;5067906;28;20449;-67
2022/04/15 02:49:13;;;;;;;2.17;1.87;;;;;;;;;;5051429;28;20221;-67
2022/04/15 02:51:40;;;;;;;3.83;1.80;;;;;;;;;;5066370;28;20210;-67
2022/04/15 02:54:07;;;;;;;2.60;1.97;;;;;;;;;;5066726;28;20213;-67
2022/04/15 02:56:34;;;;;;;2.77;1.80;;;;;;;;;;5058928;28;20258;-67
2022/04/15 02:59:01;;;;;;;1.80;1.60;;;;;;;;;;5067917;28;20201;-67
2022/04/15 03:01:29;;;;;;;2.43;1.70;;;;;;;;;;5059884;28;20339;-66
2022/04/15 03:03:56;;;;;;;2.30;1.70;;;;;;;;;;5069918;28;20243;-66
2022/04/15 03:06:23;;;;;;;2.03;1.77;;;;;;;;;;5070420;28;20233;-66
2022/04/15 03:08:50;;;;;;;1.70;1.60;;;;;;;;;;5072472;28;20242;-66
2022/04/15 03:11:17;;;;;;;1.97;1.70;;;;;;;;;;5071502;28;20537;-66
2022/04/15 03:13:44;;;;;;;1.97;1.77;;;;;;;;;;5066357;28;20205;-69
2022/04/15 03:16:12;;;;;;;1.83;1.73;;;;;;;;;;5071575;28;20194;-66
2022/04/15 03:18:39;;;;;;;1.90;1.57;;;;;;;;;;5071455;28;20205;-66
2022/04/15 03:21:06;;;;;;;1.70;1.60;;;;;;;;;;5072431;28;20247;-67
2022/04/15 03:23:33;;;;;;;1.70;1.50;;;;;;;;;;5043780;28;20240;-66
2022/04/15 03:26:01;;;;;;;1.80;1.70;;;;;;;;;;5066691;28;20808;-66
2022/04/15 03:28:28;;;;;;;1.87;1.67;;;;;;;;;;5071523;28;20189;-67
2022/04/15 03:30:55;;;;;;;1.80;1.67;;;;;;;;;;5070810;28;20193;-67
2022/04/15 03:33:22;;;;;;;1.33;1.20;;;;;;;;;;5070184;28;20185;-66
2022/04/15 03:35:49;;;;;;;2.03;1.63;;;;;;;;;;5029606;28;20201;-67
2022/04/15 03:38:16;;;;;;;1.50;1.40;;;;;;;;;;5071192;28;20189;-66
2022/04/15 03:40:43;;;;;;;2.37;1.70;;;;;;;;;;5071165;28;20198;-67
2022/04/15 03:43:11;;;;;;;1.70;1.60;;;;;;;;;;5071721;28;20228;-66
2022/04/15 03:45:38;;;;;;;2.13;1.50;;;;;;;;;;5071973;28;20201;-67
2022/04/15 03:48:05;;;;;;;2.17;1.70;;;;;;;;;;5059252;28;21826;-66
2022/04/15 03:50:33;;;;;;;1.50;1.40;;;;;;;;;;5071825;28;20279;-66
2022/04/15 03:53:00;;;;;;;1.70;1.60;;;;;;;;;;5065997;28;20213;-67
2022/04/15 03:55:27;;;;;;;1.90;1.80;;;;;;;;;;5071679;28;20198;-67
2022/04/15 03:57:55;;;;;;;2.43;1.80;;;;;;;;;;5067890;28;20522;-67
2022/04/15 04:00:23;;;;;;;1.83;1.70;;;;;;;;;;5066797;28;20216;-66
2022/04/15 04:02:52;;;;;;;1.67;1.57;;;;;;;;;;5070321;28;20582;-67
2022/04/15 04:05:20;;;;;;;2.00;1.70;;;;;;;;;;5065712;28;20331;-67
2022/04/15 04:07:52;;;;;;;3.30;1.80;;;;;;;;;;5048154;28;20193;-67
2022/04/15 04:10:19;;;;;;;2.03;1.70;;;;;;;;;;5050384;28;20214;-66
2022/04/15 04:12:48;;;;;;;2.07;1.87;;;;;;;;;;5051944;28;20225;-67
2022/04/15 04:15:15;;;;;;;2.20;2.00;;;;;;;;;;5057834;28;20583;-67
2022/04/15 04:17:43;;;;;;;2.17;1.70;;;;;;;;;;5053325;28;20198;-66
2022/04/15 04:20:12;;;;;;;1.97;1.83;;;;;;;;;;5053746;28;20253;-67
2022/04/15 04:22:39;;;;;;;1.80;1.70;;;;;;;;;;5052737;28;20195;-66
2022/04/15 04:25:10;;;;;;;2.30;2.10;;;;;;;;;;5041754;28;20337;-66
2022/04/15 04:27:46;;;;;;;2.20;2.00;;;;;;;;;;5050686;28;20221;-67
2022/04/15 04:30:25;;;;;;;2.03;1.83;;;;;;;;;;5036382;28;20202;-67
2022/04/15 04:32:59;;;;;;;2.13;1.97;;;;;;;;;;5037339;28;20210;-65
2022/04/15 04:35:34;;;;;;;2.17;1.87;;;;;;;;;;5048377;28;20218;-65
2022/04/15 04:38:05;;;;;;;2.27;2.00;;;;;;;;;;5024565;28;20203;-65
2022/04/15 04:40:35;;;;;;;1.93;1.70;;;;;;;;;;5047945;28;20803;-64
2022/04/15 04:43:05;;;;;;;2.37;2.13;;;;;;;;;;5024885;28;20210;-65
2022/04/15 04:45:40;;;;;;;2.30;2.00;;;;;;;;;;5011141;28;20209;-65
2022/04/15 04:48:13;;;;;;;2.17;2.00;;;;;;;;;;5048043;28;20304;-66
2022/04/15 04:50:46;;;;;;;1.90;1.73;;;;;;;;;;5050685;28;20198;-67
2022/04/15 04:53:15;;;;;;;2.30;2.10;;;;;;;;;;5034662;28;20228;-66
2022/04/15 04:55:47;;;;;;;1.90;1.80;;;;;;;;;;5052536;28;20191;-66
2022/04/15 04:58:15;;;;;;;1.83;1.73;;;;;;;;;;5047992;28;20199;-66
2022/04/15 05:00:42;;;;;;;2.53;2.33;;;;;;;;;;5044570;28;20289;-66
2022/04/15 05:03:10;;;;;;;2.43;2.20;;;;;;;;;;5032928;28;20244;-66
2022/04/15 05:05:37;;;;;;;2.13;2.03;;;;;;;;;;5055839;28;20225;-65
2022/04/15 05:08:04;;;;;;;2.50;2.30;;;;;;;;;;5070803;28;20907;-65
2022/04/15 05:10:32;;;;;;;2.50;2.30;;;;;;;;;;5067818;28;20198;-64
2022/04/15 05:12:59;;;;;;;3.90;2.23;;;;;;;;;;5062492;28;20214;-65
2022/04/15 05:15:26;;;;;;;2.60;2.40;;;;;;;;;;5071335;28;20206;-64
2022/04/15 05:17:53;;;;;;;2.70;2.13;;;;;;;;;;5065141;28;20271;-64
2022/04/15 05:20:23;;;;;;;2.80;2.60;;;;;;;;;;5066144;28;20279;-64
2022/04/15 05:22:55;;;;;;;2.60;2.33;;;;;;;;;;5066654;28;20638;-65
2022/04/15 05:25:24;;;;;;;2.63;2.40;;;;;;;;;;5051398;28;20628;-65
2022/04/15 05:27:58;;;;;;;2.80;2.57;;;;;;;;;;5064009;28;20202;-66
2022/04/15 05:30:27;;;;;;;3.07;2.43;;;;;;;;;;5066398;28;20710;-66
2022/04/15 05:32:57;;;;;;;2.87;2.60;;;;;;;;;;5069098;28;20193;-67
2022/04/15 05:35:28;;;;;;;4.87;2.80;;;;;;;;;;5061867;28;20281;-65
2022/04/15 05:38:00;;;;;;;3.93;2.87;;;;;;;;;;5043078;28;20211;-64
2022/04/15 05:40:28;;;;;;;5.40;3.20;;;;;;;;;;5067284;28;20198;-64
2022/04/15 05:42:59;;;;;;;4.20;2.90;;;;;;;;;;5054382;28;20202;-65
2022/04/15 05:45:30;;;;;;;3.67;2.97;;;;;;;;;;5053091;28;20202;-66
2022/04/15 05:47:59;;;;;;;3.27;2.90;;;;;;;;;;5065041;28;20190;-67
2022/04/15 05:50:28;;;;;;;2.90;2.67;;;;;;;;;;5063226;28;20241;-65
2022/04/15 05:52:55;;;;;;;2.83;2.60;;;;;;;;;;5067349;28;20232;-65
2022/04/15 05:55:22;;;;;;;2.77;2.40;;;;;;;;;;5067136;28;20707;-65
2022/04/15 05:57:50;;;;;;;3.80;3.00;;;;;;;;;;5066386;28;20224;-64
2022/04/15 06:00:17;;;;;;;3.43;3.10;;;;;;;;;;5073784;28;20189;-66
2022/04/15 06:02:44;;;;;;;3.90;2.83;;;;;;;;;;5081176;28;20509;-67
2022/04/15 06:05:11;;;;;;;3.43;2.97;;;;;;;;;;5093241;28;20244;-67
2022/04/15 06:07:39;;;;;;;3.43;3.13;;;;;;;;;;5087308;28;20275;-67
2022/04/15 06:10:06;;;;;;;3.27;3.00;;;;;;;;;;5078757;28;20210;-66
2022/04/15 06:13:00;;;;;;;3.30;2.93;;;;;;;;;;5049203;28;20205;-66
2022/04/15 06:15:28;;;;;;;3.77;3.13;;;;;;;;;;5067467;28;20209;-65
2022/04/15 06:17:55;;;;;;;3.20;2.90;;;;;;;;;;5060476;28;20553;-65
2022/04/15 06:20:23;;;;;;;3.57;3.20;;;;;;;;;;5066630;28;20186;-65
2022/04/15 06:22:50;;;;;;;5.23;3.87;;;;;;;;;;5067186;28;20197;-64
2022/04/15 06:25:17;;;;;;;60.05;14.27;;;;;;;;;;5057960;28;20440;-62
2022/04/15 06:27:44;;;;;;;103.07;23.43;;;;;;;;;;5060138;28;20683;-64
2022/04/15 06:30:11;;;;;;;98.90;21.57;;;;;;;;;;5060370;28;20701;-65
2022/04/15 06:32:39;;;;;;;82.97;20.77;;;;;;;;;;5065249;28;20255;-65
2022/04/15 06:35:06;;;;;;;58.33;18.23;;;;;;;;;;5067451;28;20254;-65
2022/04/15 06:37:34;;;;;;;54.27;17.03;;;;;;;;;;5048141;28;20228;-65
2022/04/15 06:40:01;;;;;;;57.67;15.43;;;;;;;;;;5058881;28;20436;-65
2022/04/15 06:42:32;;;;;;;46.93;14.40;;;;;;;;;;5063398;28;20263;-65
2022/04/15 06:44:59;;;;;;;39.10;13.43;;;;;;;;;;5065994;28;20232;-65
2022/04/15 06:47:27;;;;;;;37.30;12.03;;;;;;;;;;5065058;28;20642;-66
2022/04/15 06:49:54;;;;;;;31.40;11.13;;;;;;;;;;5064527;28;20201;-66
2022/04/15 06:52:21;;;;;;;31.30;10.97;;;;;;;;;;5056079;28;20217;-65
2022/04/15 06:54:48;;;;;;;27.87;9.50;;;;;;;;;;5065393;28;20208;-65
2022/04/15 06:57:16;;;;;;;25.93;9.73;;;;;;;;;;5065157;28;20185;-66
2022/04/15 06:59:43;;;;;;;20.90;8.87;;;;;;;;;;5065089;28;20188;-65
2022/04/15 07:02:10;;;;;;;22.67;8.90;;;;;;;;;;5064973;28;20202;-64
2022/04/15 07:04:37;;;;;;;17.07;8.37;;;;;;;;;;5043854;28;20221;-64
2022/04/15 07:07:05;;;;;;;14.17;7.67;;;;;;;;;;5063810;28;20317;-64
2022/04/15 07:09:32;;;;;;;12.30;6.70;;;;;;;;;;5064543;28;20220;-66
2022/04/15 07:11:59;;;;;;;16.77;7.27;;;;;;;;;;5062358;28;20201;-64
2022/04/15 07:14:29;;;;;;;11.87;6.93;;;;;;;;;;5046860;28;20750;-64
2022/04/15 07:16:56;;;;;;;13.00;6.13;;;;;;;;;;5062370;28;20674;-66
2022/04/15 07:19:23;;;;;;;15.23;6.43;;;;;;;;;;5062483;28;20259;-65
2022/04/15 07:21:50;;;;;;;12.30;5.77;;;;;;;;;;5040397;28;20186;-63
2022/04/15 07:24:18;;;;;;;12.77;5.80;;;;;;;;;;5046048;28;20240;-65
2022/04/15 07:26:45;;;;;;;10.63;5.30;;;;;;;;;;5055204;28;20202;-65
2022/04/15 07:29:12;;;;;;;8.47;5.07;;;;;;;;;;5025520;28;20210;-66
2022/04/15 07:31:40;;;;;;;7.97;5.33;;;;;;;;;;5067954;28;20214;-64
2022/04/15 07:34:07;;;;;;;7.37;5.17;;;;;;;;;;5045233;28;20227;-67
2022/04/15 07:39:03;;;;;;;10.77;5.13;;;;;;;;;;5064244;28;20193;-66
2022/04/15 07:41:31;;;;;;;11.10;4.77;;;;;;;;;;5062003;28;20574;-65
2022/04/15 07:43:58;;;;;;;8.57;4.60;;;;;;;;;;5063302;28;20190;-64
2022/04/15 07:46:25;;;;;;;5.83;4.40;;;;;;;;;;5053776;28;20204;-65
2022/04/15 07:48:52;;;;;;;9.13;4.60;;;;;;;;;;5065950;28;20197;-65
2022/04/15 07:51:20;;;;;;;9.97;4.20;;;;;;;;;;5070301;28;20432;-65
2022/04/15 07:53:47;;;;;;;6.33;3.97;;;;;;;;;;5062592;28;20811;-63
2022/04/15 07:56:14;;;;;;;4.77;3.80;;;;;;;;;;5069483;28;20675;-65
2022/04/15 07:58:41;;;;;;;6.10;3.90;;;;;;;;;;5069440;28;20197;-66
2022/04/15 08:01:10;;;;;;;4.00;3.60;;;;;;;;;;5074331;28;20261;-65
2022/04/15 08:03:37;;;;;;;6.33;3.93;;;;;;;;;;5065468;28;20231;-64
2022/04/15 08:06:05;;;;;;;4.90;3.43;;;;;;;;;;5056449;28;20241;-65
2022/04/15 08:08:32;;;;;;;5.47;3.73;;;;;;;;;;5070074;28;20250;-66
2022/04/15 08:10:59;;;;;;;4.23;3.10;;;;;;;;;;5063112;28;20275;-62
2022/04/15 08:13:26;;;;;;;4.47;3.00;;;;;;;;;;5068336;28;20197;-63
2022/04/15 08:15:54;;;;;;;5.50;3.17;;;;;;;;;;5040992;28;20189;-63
2022/04/15 08:18:22;;;;;;;4.30;2.80;;;;;;;;;;5068002;28;20312;-64
2022/04/15 08:20:53;;;;;;;4.10;2.83;;;;;;;;;;5068448;28;20213;-64
2022/04/15 08:23:20;;;;;;;5.00;2.90;;;;;;;;;;5068945;28;20279;-65
2022/04/15 08:25:50;;;;;;;3.20;2.63;;;;;;;;;;5066130;28;20197;-64
2022/04/15 08:28:21;;;;;;;2.50;2.30;;;;;;;;;;5048404;28;20240;-63
2022/04/15 08:30:49;;;;;;;2.70;2.50;;;;;;;;;;5081606;28;20217;-65
2022/04/15 08:33:16;;;;;;;4.27;2.73;;;;;;;;;;5064075;28;20241;-66
2022/04/15 08:35:47;;;;;;;3.00;2.30;;;;;;;;;;5066785;28;20194;-64
2022/04/15 08:38:14;;;;;;;2.90;2.47;;;;;;;;;;5034893;28;20282;-62
2022/04/15 08:40:49;;;;;;;2.53;2.33;;;;;;;;;;5051026;28;20206;-63
2022/04/15 08:43:16;;;;;;;2.43;2.20;;;;;;;;;;5068119;28;20227;-63
2022/04/15 08:45:46;;;;;;;2.70;2.50;;;;;;;;;;5068448;28;20217;-64
2022/04/15 08:48:15;;;;;;;2.97;2.13;;;;;;;;;;5073241;28;20231;-67
2022/04/15 08:50:43;;;;;;;3.10;2.03;;;;;;;;;;5067837;28;20213;-67
2022/04/15 08:53:10;;;;;;;3.00;1.90;;;;;;;;;;5060833;28;20679;-68
2022/04/15 08:55:38;;;;;;;6.20;2.60;;;;;;;;;;5070798;28;20198;-65
2022/04/15 08:58:05;;;;;;;2.53;2.13;;;;;;;;;;5085757;28;20202;-65
2022/04/15 09:00:32;;;;;;;2.33;2.00;;;;;;;;;;5056940;28;20228;-64
2022/04/15 09:03:00;;;;;;;4.00;2.00;;;;;;;;;;5061339;28;20210;-63
2022/04/15 09:05:30;;;;;;;2.97;1.93;;;;;;;;;;5043419;28;20261;-66
2022/04/15 09:08:04;;;;;;;3.87;1.90;;;;;;;;;;5074750;28;20239;-64
2022/04/15 09:10:33;;;;;;;1.73;1.63;;;;;;;;;;5067741;28;20216;-64
2022/04/15 09:13:01;;;;;;;2.20;1.73;;;;;;;;;;5064175;28;20537;-64
2022/04/15 09:15:34;;;;;;;1.80;1.70;;;;;;;;;;5054868;28;20194;-64
2022/04/15 09:18:01;;;;;;;2.10;1.80;;;;;;;;;;5065139;28;20263;-63
2022/04/15 09:20:31;;;;;;;2.27;2.00;;;;;;;;;;5067136;28;20208;-65
2022/04/15 09:23:08;;;;;;;1.90;1.70;;;;;;;;;;5058584;28;20202;-64
2022/04/15 09:25:36;;;;;;;2.90;1.77;;;;;;;;;;5063815;28;20199;-69
2022/04/15 09:28:03;;;;;;;1.87;1.43;;;;;;;;;;5052506;28;20198;-67
2022/04/15 09:30:36;;;;;;;2.03;1.43;;;;;;;;;;5072155;28;20213;-65
2022/04/15 09:33:04;;;;;;;3.57;1.90;;;;;;;;;;5076410;28;20238;-64
2022/04/15 09:35:32;;;;;;;2.37;2.17;;;;;;;;;;5076424;28;20210;-66
2022/04/15 09:38:03;;;;;;;1.97;1.80;;;;;;;;;;5069295;28;20225;-67
2022/04/15 09:40:41;;;;;;;2.17;1.97;;;;;;;;;;5073813;28;20208;-67
2022/04/15 09:43:08;;;;;;;2.43;2.10;;;;;;;;;;5060241;28;20208;-67
2022/04/15 09:45:38;;;;;;;2.43;2.03;;;;;;;;;;5072436;28;20204;-66
2022/04/15 09:48:07;;;;;;;2.10;1.90;;;;;;;;;;5043703;28;20200;-66
2022/04/15 09:50:42;;;;;;;2.10;1.80;;;;;;;;;;5061551;28;20218;-67
2022/04/15 09:53:13;;;;;;;2.37;2.17;;;;;;;;;;5073235;28;20232;-66
2022/04/15 09:55:41;;;;;;;2.33;2.13;;;;;;;;;;5073061;28;20709;-67
2022/04/15 09:58:12;;;;;;;3.50;2.03;;;;;;;;;;5076278;28;21321;-66
2022/04/15 10:00:40;;;;;;;2.57;2.10;;;;;;;;;;5074417;28;20206;-65
2022/04/15 10:03:09;;;;;;;2.57;1.97;;;;;;;;;;5077448;28;20236;-65
2022/04/15 10:05:37;;;;;;;1.80;1.70;;;;;;;;;;5074495;28;20678;-65
2022/04/15 10:08:04;;;;;;;3.60;1.90;;;;;;;;;;5070837;28;20206;-66
2022/04/15 10:10:32;;;;;;;2.47;2.20;;;;;;;;;;5073792;28;20210;-62
2022/04/15 10:13:03;;;;;;;2.17;1.83;;;;;;;;;;5075590;28;20201;-64
2022/04/15 10:15:32;;;;;;;2.80;1.80;;;;;;;;;;5075765;28;20197;-66
2022/04/15 10:18:02;;;;;;;2.80;1.80;;;;;;;;;;5071335;28;20214;-67
2022/04/15 10:20:30;;;;;;;3.23;1.63;;;;;;;;;;5075355;28;20194;-66
2022/04/15 10:23:00;;;;;;;3.30;2.20;;;;;;;;;;5072471;28;20745;-68
2022/04/15 10:25:29;;;;;;;3.10;2.20;;;;;;;;;;5073157;28;20212;-65
2022/04/15 10:28:10;;;;;;;2.53;2.10;;;;;;;;;;5072194;28;20189;-66
2022/04/15 10:30:38;;;;;;;2.40;2.03;;;;;;;;;;5029344;28;20201;-66
2022/04/15 10:33:05;;;;;;;2.10;1.73;;;;;;;;;;5076150;28;20262;-66
2022/04/15 10:35:34;;;;;;;4.37;2.00;;;;;;;;;;5057938;28;20202;-66
2022/04/15 10:38:11;;;;;;;1.83;1.70;;;;;;;;;;5072838;28;20359;-65
2022/04/15 10:40:43;;;;;;;2.73;2.07;;;;;;;;;;5071872;28;20213;-65
2022/04/15 10:43:17;;;;;;;4.37;2.10;;;;;;;;;;5076343;28;20774;-64
2022/04/15 10:45:44;;;;;;;2.40;2.20;;;;;;;;;;5074747;28;20205;-66
2022/04/15 10:48:11;;;;;;;4.00;1.90;;;;;;;;;;5075179;28;20246;-66
2022/04/15 10:50:40;;;;;;;1.67;1.57;;;;;;;;;;5077215;28;20250;-67
2022/04/15 10:53:17;;;;;;;2.63;1.97;;;;;;;;;;5074095;28;20209;-66
2022/04/15 10:55:48;;;;;;;2.27;1.80;;;;;;;;;;5074514;28;20204;-69
2022/04/15 10:58:16;;;;;;;2.42;1.85;;;;;;;;;;5076949;28;20422;-65
2022/04/15 11:03:31;;;;;;;2.40;1.33;;;;;;;;;;5078253;28;20194;-63
2022/04/15 11:06:06;;;;;;;2.13;1.10;;;;;;;;;;5071138;28;20573;-61
2022/04/15 11:08:53;;;;;;;1.23;0.83;;;;;;;;;;5066698;28;20196;-62
2022/04/15 11:11:33;;;;;;;2.60;0.83;;;;;;;;;;5079252;28;20225;-62
2022/04/15 11:14:03;;;;;;;1.17;0.93;;;;;;;;;;5075433;28;20204;-63
2022/04/15 11:16:40;;;;;;;1.33;0.90;;;;;;;;;;5074317;28;20595;-61
2022/04/15 11:19:08;;;;;;;1.43;1.00;;;;;;;;;;5057539;28;20210;-60
2022/04/15 11:21:40;;;;;;;1.03;0.90;;;;;;;;;;5077801;28;20208;-62
2022/04/15 11:24:08;;;;;;;1.03;0.80;;;;;;;;;;5077573;28;20204;-62
2022/04/15 11:26:37;;;;;;;1.13;0.80;;;;;;;;;;5081603;28;20196;-62
2022/04/15 11:29:06;;;;;;;0.60;0.60;;;;;;;;;;5068306;28;20217;-61
2022/04/15 11:31:34;;;;;;;1.37;0.80;;;;;;;;;;5081669;28;20209;-62
2022/04/15 11:34:09;;;;;;;0.70;0.70;;;;;;;;;;5061993;28;20265;-62
2022/04/15 11:36:37;;;;;;;1.53;0.90;;;;;;;;;;5082833;28;20201;-62
2022/04/15 11:39:05;;;;;;;1.13;0.80;;;;;;;;;;5082273;28;20639;-61
2022/04/15 11:41:33;;;;;;;5.10;0.90;;;;;;;;;;5059466;28;20213;-61
2022/04/15 11:44:01;;;;;;;0.87;0.70;;;;;;;;;;5060074;28;20291;-63
2022/04/15 11:46:38;;;;;;;0.77;0.70;;;;;;;;;;5080800;28;20263;-63
2022/04/15 11:49:16;;;;;;;0.80;0.70;;;;;;;;;;5081142;28;20212;-63
2022/04/15 11:51:44;;;;;;;1.53;0.73;;;;;;;;;;5078105;28;20264;-61
2022/04/15 11:54:11;;;;;;;1.37;0.87;;;;;;;;;;5074157;28;20835;-62
2022/04/15 11:56:39;;;;;;;0.77;0.70;;;;;;;;;;5062751;28;20201;-62
2022/04/15 11:59:10;;;;;;;1.13;0.70;;;;;;;;;;5073599;28;20198;-63
2022/04/15 12:01:37;;;;;;;1.00;0.73;;;;;;;;;;5062263;28;20803;-62
2022/04/15 12:04:08;;;;;;;1.10;0.70;;;;;;;;;;5055705;28;20879;-62
2022/04/15 12:06:40;;;;;;;2.30;0.93;;;;;;;;;;5080181;28;20290;-62
2022/04/15 12:09:09;;;;;;;1.47;0.90;;;;;;;;;;5077341;28;20197;-62
2022/04/15 12:11:57;;;;;;;1.13;0.83;;;;;;;;;;5074291;28;20231;-61
2022/04/15 12:14:35;;;;;;;1.33;1.00;;;;;;;;;;5079144;28;20210;-61
2022/04/15 12:17:02;;;;;;;0.97;0.70;;;;;;;;;;5074415;28;20282;-59
2022/04/15 12:19:29;;;;;;;2.97;1.00;;;;;;;;;;5079985;28;20314;-59
2022/04/15 12:22:00;;;;;;;1.60;1.10;;;;;;;;;;5075705;28;20201;-59
2022/04/15 12:24:31;;;;;;;3.13;0.97;;;;;;;;;;5077782;28;20201;-60
2022/04/15 12:27:01;;;;;;;3.67;1.07;;;;;;;;;;5076437;28;20212;-59
2022/04/15 12:29:48;;;;;;;2.07;1.10;;;;;;;;;;5074883;28;20902;-60
2022/04/15 12:32:17;;;;;;;1.10;1.00;;;;;;;;;;5061456;28;20255;-59
2022/04/15 12:34:46;;;;;;;4.07;1.17;;;;;;;;;;5077630;28;20395;-59
2022/04/15 12:37:35;;;;;;;1.27;1.10;;;;;;;;;;5073904;28;20717;-61
2022/04/15 12:40:09;;;;;;;2.33;0.90;;;;;;;;;;5068433;28;20206;-60
2022/04/15 12:42:37;;;;;;;1.73;1.10;;;;;;;;;;5076347;28;20267;-60
2022/04/15 12:45:09;;;;;;;1.70;1.00;;;;;;;;;;5075785;28;20205;-59
2022/04/15 12:47:39;;;;;;;2.17;1.10;;;;;;;;;;5074173;28;20300;-60
2022/04/15 12:50:28;;;;;;;2.93;1.13;;;;;;;;;;5072841;28;20221;-59
2022/04/15 12:52:58;;;;;;;2.70;1.20;;;;;;;;;;5038487;28;20241;-60
2022/04/15 12:55:26;;;;;;;1.73;1.10;;;;;;;;;;5077842;28;20185;-59
2022/04/15 12:57:53;;;;;;;1.57;1.10;;;;;;;;;;5055358;28;20559;-60
2022/04/15 13:00:21;;;;;;;1.87;0.80;;;;;;;;;;5075019;28;20193;-63
2022/04/15 13:02:48;;;;;;;1.87;0.90;;;;;;;;;;5072745;28;20804;-62
2022/04/15 13:05:16;;;;;;;1.20;1.00;;;;;;;;;;5074377;28;20549;-62
2022/04/15 13:07:43;;;;;;;1.93;1.13;;;;;;;;;;5072388;28;20200;-63
2022/04/15 13:10:11;;;;;;;1.63;0.90;;;;;;;;;;5076582;28;20643;-62
2022/04/15 13:12:58;;;;;;;1.20;1.10;;;;;;;;;;5073863;28;20251;-62
2022/04/15 13:15:26;;;;;;;1.37;1.10;;;;;;;;;;5074308;28;20198;-64
2022/04/15 13:17:53;;;;;;;1.47;1.17;;;;;;;;;;5054402;28;20258;-63
2022/04/15 13:20:20;;;;;;;5.53;0.97;;;;;;;;;;5080326;28;20681;-63
2022/04/15 13:22:47;;;;;;;1.30;1.00;;;;;;;;;;5073038;28;20205;-62
2022/04/15 13:25:15;;;;;;;1.67;1.03;;;;;;;;;;5073415;28;20642;-62
2022/04/15 13:27:42;;;;;;;1.47;1.00;;;;;;;;;;5059287;28;20201;-62
2022/04/15 13:30:10;;;;;;;3.10;0.93;;;;;;;;;;5076378;28;20251;-63
2022/04/15 13:32:40;;;;;;;2.83;1.10;;;;;;;;;;5058053;28;20229;-62
2022/04/15 13:35:12;;;;;;;1.77;0.80;;;;;;;;;;5078690;28;20185;-63
2022/04/15 13:37:39;;;;;;;5.07;1.20;;;;;;;;;;5077210;28;20202;-62
2022/04/15 13:40:07;;;;;;;1.40;1.13;;;;;;;;;;5069317;28;20201;-60
2022/04/15 13:42:34;;;;;;;1.37;1.07;;;;;;;;;;5077114;28;20205;-61
2022/04/15 13:45:02;;;;;;;1.20;1.03;;;;;;;;;;5073515;28;20237;-61
2022/04/15 13:47:29;;;;;;;1.40;1.03;;;;;;;;;;5058499;28;20213;-62
2022/04/15 13:49:57;;;;;;;3.73;1.23;;;;;;;;;;5071511;28;20412;-62
2022/04/15 13:57:56;;;;;;;1.37;0.90;;;;;;;;;;5075441;28;21135;-64
2022/04/15 14:00:23;;;;;;;1.10;1.00;;;;;;;;;;5074271;28;20240;-65
2022/04/15 14:02:50;;;;;;;1.13;1.00;;;;;;;;;;5076294;28;20194;-65
2022/04/15 14:05:19;;;;;;;1.63;1.30;;;;;;;;;;5071717;28;20523;-62
2022/04/15 14:07:48;;;;;;;1.20;1.10;;;;;;;;;;5071943;28;20626;-61
2022/04/15 14:10:27;;;;;;;1.00;1.00;;;;;;;;;;5074613;28;20186;-62
2022/04/15 14:13:02;;;;;;;0.90;0.80;;;;;;;;;;5079210;28;20224;-62
2022/04/15 14:15:35;;;;;;;2.13;1.40;;;;;;;;;;5059975;28;20685;-64
2022/04/15 14:18:08;;;;;;;1.70;1.10;;;;;;;;;;5069736;28;20235;-63
2022/04/15 14:20:43;;;;;;;1.53;1.20;;;;;;;;;;5076844;28;20197;-63
2022/04/15 14:23:15;;;;;;;4.20;1.30;;;;;;;;;;5075288;28;20215;-63
2022/04/15 14:25:48;;;;;;;1.87;0.90;;;;;;;;;;5077166;28;20196;-63
2022/04/15 14:28:15;;;;;;;1.97;0.97;;;;;;;;;;5056247;28;20213;-64
2022/04/15 14:30:42;;;;;;;0.87;0.70;;;;;;;;;;5074713;28;20200;-63
2022/04/15 14:33:09;;;;;;;3.20;1.00;;;;;;;;;;5075713;28;20286;-62
2022/04/15 14:35:41;;;;;;;1.70;1.43;;;;;;;;;;5057165;28;20201;-64
2022/04/15 14:38:08;;;;;;;2.10;1.20;;;;;;;;;;5062953;28;20274;-65
2022/04/15 14:40:35;;;;;;;2.30;1.33;;;;;;;;;;5072709;28;20205;-61
2022/04/15 14:43:02;;;;;;;2.63;1.10;;;;;;;;;;5057310;28;20208;-63
2022/04/15 14:45:31;;;;;;;3.10;1.10;;;;;;;;;;5060054;28;20670;-62
2022/04/15 14:47:58;;;;;;;2.30;0.90;;;;;;;;;;5072827;28;20270;-62
2022/04/15 14:50:28;;;;;;;0.90;0.90;;;;;;;;;;5076384;28;20933;-63
2022/04/15 14:52:56;;;;;;;1.30;1.00;;;;;;;;;;5071903;28;20237;-62
2022/04/15 14:55:23;;;;;;;2.20;1.10;;;;;;;;;;5074274;28;20201;-63
2022/04/15 14:57:50;;;;;;;1.77;0.93;;;;;;;;;;5059941;28;20247;-63
2022/04/15 15:00:19;;;;;;;1.33;1.10;;;;;;;;;;5068272;28;20970;-61
2022/04/15 15:02:50;;;;;;;2.97;1.10;;;;;;;;;;5068598;28;20204;-62